Time;durP1;ratioP1;P1;durP2;ratioP2;P2;SDS_P1;SDS_P2;PMS_P1;PMS_P2;Temp;Humidity;BMP_temperature;BMP_pressure;BME280_temperature;BME280_humidity;BME280_pressure;Samples;Min_cycle;Max_cycle;Signal;HPM_P1;HPM_P2
2022/08/26 00:00:50;;;;;;;;;;;;;;;23.95;64.19;99743.34;5035870;28;19917;-78
2022/08/26 00:03:18;;;;;;;;;;;;;;;23.95;64.24;99743.34;5054011;28;19995;-79
2022/08/26 00:05:44;;;;;;;;;;;;;;;23.83;64.85;99734.91;5036014;28;19939;-78
2022/08/26 00:08:12;;;;;;;;;;;;;;;23.72;65.61;99735.31;5036334;28;20019;-80
2022/08/26 00:10:37;;;;;;;;;;;;;;;23.67;66.08;99727.41;5035824;28;20007;-78
2022/08/26 00:13:04;;;;;;;;;;;;;;;23.66;65.70;99731.50;5036246;28;20047;-79
2022/08/26 00:15:32;;;;;;;;;;;;;;;23.62;65.93;99730.81;5035987;28;19923;-79
2022/08/26 00:17:58;;;;;;;;;;;;;;;23.52;66.25;99727.91;5035542;28;19921;-79
2022/08/26 00:20:25;;;;;;;;;;;;;;;23.47;66.63;99734.16;5035695;28;20454;-79
2022/08/26 00:22:56;;;;;;;;;;;;;;;23.45;66.41;99733.84;5035943;28;19970;-78
2022/08/26 00:25:21;;;;;;;;;;;;;;;23.39;66.84;99730.03;5035532;28;19916;-78
2022/08/26 00:27:52;;;;;;;;;;;;;;;23.38;67.16;99728.41;5035632;28;20032;-79
2022/08/26 00:30:25;;;;;;;;;;;;;;;23.45;66.14;99716.81;5035561;28;20013;-79
2022/08/26 00:32:50;;;;;;;;;;;;;;;23.40;66.94;99725.94;5035549;28;19923;-78
2022/08/26 00:35:16;;;;;;;;;;;;;;;23.36;66.61;99730.94;5036176;28;19920;-79
2022/08/26 00:37:41;;;;;;;;;;;;;;;23.37;67.01;99731.72;5036036;28;20381;-78
2022/08/26 00:40:10;;;;;;;;;;;;;;;23.37;66.40;99726.84;5035468;28;19920;-78
2022/08/26 00:42:35;;;;;;;;;;;;;;;23.35;66.56;99729.34;5053080;28;20309;-79
2022/08/26 00:45:01;;;;;;;;;;;;;;;23.32;67.09;99729.47;5035490;28;20142;-78
2022/08/26 00:47:34;;;;;;;;;;;;;;;23.20;67.05;99731.13;5035667;28;19921;-78
2022/08/26 00:50:01;;;;;;;;;;;;;;;23.26;66.74;99726.44;5039615;28;19921;-79
2022/08/26 00:52:29;;;;;;;;;;;;;;;23.26;67.15;99729.28;5039621;28;20375;-78
2022/08/26 00:55:08;;;;;;;;;;;;;;;23.16;67.87;99721.94;5039144;28;19917;-78
2022/08/26 00:57:39;;;;;;;;;;;;;;;23.16;67.98;99730.47;5038986;28;20003;-79
2022/08/26 01:00:08;;;;;;;;;;;;;;;23.22;67.97;99725.78;5038946;28;19917;-78
2022/08/26 01:02:33;;;;;;;;;;;;;;;23.30;67.29;99721.44;5056884;28;20378;-78
2022/08/26 01:05:03;;;;;;;;;;;;;;;23.30;67.18;99715.75;5038948;28;19942;-79
2022/08/26 01:07:29;;;;;;;;;;;;;;;23.31;67.42;99717.34;5038902;28;19960;-80
2022/08/26 01:09:58;;;;;;;;;;;;;;;23.27;67.34;99716.66;5038842;28;20006;-78
2022/08/26 01:12:27;;;;;;;;;;;;;;;23.27;67.02;99711.00;5039028;28;20016;-79
2022/08/26 01:14:53;;;;;;;;;;;;;;;23.18;67.85;99713.78;5039231;28;20397;-79
2022/08/26 01:17:21;;;;;;;;;;;;;;;23.11;68.31;99711.19;5038940;28;19916;-79
2022/08/26 01:19:52;;;;;;;;;;;;;;;23.02;68.92;99719.63;5038155;28;20015;-79
2022/08/26 01:22:31;;;;;;;;;;;;;;;23.06;69.22;99726.75;5038832;28;19956;-79
2022/08/26 01:24:59;;;;;;;;;;;;;;;23.04;68.29;99719.97;5038434;28;19927;-79
2022/08/26 01:27:31;;;;;;;;;;;;;;;23.02;68.69;99719.63;5038589;28;19924;-79
2022/08/26 01:30:00;;;;;;;;;;;;;;;23.04;68.73;99725.63;5038956;28;20432;-78
2022/08/26 01:32:28;;;;;;;;;;;;;;;22.99;68.48;99719.28;5038420;28;19923;-79
2022/08/26 01:34:53;;;;;;;;;;;;;;;23.06;68.48;99718.22;5038941;28;20248;-78
2022/08/26 01:37:21;;;;;;;;;;;;;;;23.11;68.17;99709.13;5038304;28;19924;-78
2022/08/26 01:39:54;;;;;;;;;;;;;;;23.16;68.09;99710.59;5038823;28;19928;-79
2022/08/26 01:42:21;;;;;;;;;;;;;;;23.19;68.25;99715.34;5038136;28;20441;-79
2022/08/26 01:45:01;;;;;;;;;;;;;;;23.13;68.43;99718.00;5038107;28;19920;-79
2022/08/26 01:47:28;;;;;;;;;;;;;;;23.21;68.64;99712.84;5038077;28;19920;-78
2022/08/26 01:49:58;;;;;;;;;;;;;;;23.19;68.07;99727.50;5055989;28;20021;-78
2022/08/26 01:52:28;;;;;;;;;;;;;;;23.15;68.03;99718.31;5038055;28;19917;-79
2022/08/26 01:54:56;;;;;;;;;;;;;;;23.11;68.27;99716.84;5038586;28;19916;-78
2022/08/26 01:57:25;;;;;;;;;;;;;;;23.10;68.48;99712.44;5055547;28;19916;-79
2022/08/26 01:59:51;;;;;;;;;;;;;;;23.17;67.99;99713.00;5037329;28;19917;-78
2022/08/26 02:02:17;;;;;;;;;;;;;;;23.01;68.52;99710.34;5037781;28;19920;-79
2022/08/26 02:04:47;;;;;;;;;;;;;;;22.91;69.18;99715.13;5038323;28;19924;-78
2022/08/26 02:07:13;;;;;;;;;;;;;;;22.89;69.62;99711.16;5038022;28;20022;-79
2022/08/26 02:09:39;;;;;;;;;;;;;;;22.90;69.44;99710.69;5037703;28;19917;-79
2022/08/26 02:12:05;;;;;;;;;;;;;;;22.97;69.17;99704.78;5038178;28;19939;-78
2022/08/26 02:14:37;;;;;;;;;;;;;;;22.96;68.60;99714.53;5037623;28;20381;-78
2022/08/26 02:17:06;;;;;;;;;;;;;;;22.90;69.08;99705.00;5038055;28;19917;-78
2022/08/26 02:19:33;;;;;;;;;;;;;;;22.89;69.19;99713.97;5037263;28;19928;-79
2022/08/26 02:22:00;;;;;;;;;;;;;;;22.87;69.41;99710.78;5037402;28;19921;-78
2022/08/26 02:24:27;;;;;;;;;;;;;;;22.82;69.71;99715.00;5037886;28;19924;-79
2022/08/26 02:26:56;;;;;;;;;;;;;;;22.87;70.05;99710.78;5037942;28;19968;-79
2022/08/26 02:29:24;;;;;;;;;;;;;;;22.96;70.19;99713.75;5038067;28;20302;-78
2022/08/26 02:31:50;;;;;;;;;;;;;;;23.02;69.65;99713.97;5037333;28;19948;-79
2022/08/26 02:34:21;;;;;;;;;;;;;;;23.03;69.31;99712.69;5037242;28;19925;-78
2022/08/26 02:36:49;;;;;;;;;;;;;;;23.14;69.40;99702.53;5037381;28;19921;-78
2022/08/26 02:39:17;;;;;;;;;;;;;;;23.16;68.87;99710.59;5037593;28;19967;-78
2022/08/26 02:41:43;;;;;;;;;;;;;;;23.16;68.76;99717.06;5037108;28;19917;-79
2022/08/26 02:44:14;;;;;;;;;;;;;;;23.06;69.08;99711.75;5037588;28;19943;-78
2022/08/26 02:46:42;;;;;;;;;;;;;;;23.00;69.07;99708.72;5037252;28;20361;-78
2022/08/26 02:49:08;;;;;;;;;;;;;;;23.00;70.46;99708.72;5037062;28;19916;-79
2022/08/26 02:51:33;;;;;;;;;;;;;;;23.02;69.60;99711.13;5036816;28;20262;-78
2022/08/26 02:54:01;;;;;;;;;;;;;;;22.99;69.53;99707.16;5036858;28;19928;-79
2022/08/26 02:56:28;;;;;;;;;;;;;;;22.96;69.96;99705.25;5036728;28;19917;-78
2022/08/26 02:58:58;;;;;;;;;;;;;;;23.04;69.43;99697.25;5037506;28;20023;-78
2022/08/26 03:01:25;;;;;;;;;;;;;;;22.94;69.61;99702.06;5037260;28;20248;-78
2022/08/26 03:03:53;;;;;;;;;;;;;;;22.87;70.23;99708.75;5037281;28;19920;-78
2022/08/26 03:06:18;;;;;;;;;;;;;;;22.86;70.67;99701.50;5036483;28;19924;-78
2022/08/26 03:08:44;;;;;;;;;;;;;;;22.87;70.63;99700.25;5036811;28;19923;-79
2022/08/26 03:11:12;;;;;;;;;;;;;;;22.88;70.43;99696.19;5036569;28;20417;-78
2022/08/26 03:13:41;;;;;;;;;;;;;;;22.86;70.19;99698.66;5036506;28;20371;-78
2022/08/26 03:16:07;;;;;;;;;;;;;;;22.89;70.05;99691.28;5036517;28;19956;-78
2022/08/26 03:18:35;;;;;;;;;;;;;;;22.92;69.83;99696.84;5036387;28;19975;-78
2022/08/26 03:21:12;;;;;;;;;;;;;;;22.81;69.86;99687.91;5036533;28;20329;-78
2022/08/26 03:23:41;;;;;;;;;;;;;;;22.74;70.29;99688.13;5036862;28;19921;-79
2022/08/26 03:26:14;;;;;;;;;;;;;;;22.72;69.79;99684.97;5036206;28;20027;-78
2022/08/26 03:31:25;;;;;;;;;;;;;;;22.66;70.26;99679.09;5054465;28;19923;-78
2022/08/26 03:33:51;;;;;;;;;;;;;;;22.63;70.64;99677.16;5036197;28;19917;-79
2022/08/26 03:36:18;;;;;;;;;;;;;;;22.70;70.95;99679.75;5036669;28;19927;-79
2022/08/26 03:38:44;;;;;;;;;;;;;;;22.75;70.37;99681.22;5036565;28;19921;-78
2022/08/26 03:41:11;;;;;;;;;;;;;;;22.73;70.48;99683.72;5036008;28;19970;-78
2022/08/26 03:43:39;;;;;;;;;;;;;;;22.72;70.19;99676.47;5036011;28;20019;-78
2022/08/26 03:46:08;;;;;;;;;;;;;;;22.68;69.75;99673.75;5036462;28;20359;-78
2022/08/26 03:48:33;;;;;;;;;;;;;;;22.64;69.32;99675.13;5035987;28;19970;-79
2022/08/26 03:50:59;;;;;;;;;;;;;;;22.63;69.51;99680.00;5035968;28;19925;-78
2022/08/26 03:53:28;;;;;;;;;;;;;;;22.64;69.00;99675.13;5035887;28;19947;-79
2022/08/26 03:55:56;;;;;;;;;;;;;;;22.68;68.39;99681.47;5036193;28;20355;-78
2022/08/26 03:58:24;;;;;;;;;;;;;;;22.74;68.16;99679.63;5036022;28;19921;-78
2022/08/26 04:00:50;;;;;;;;;;;;;;;22.84;67.55;99680.50;5035792;28;19917;-78
2022/08/26 04:03:56;;;;;;;;;;;;;;;22.93;66.97;99675.75;5035766;28;19921;-78
2022/08/26 04:06:04;;;;;;;;;;;;;;;22.99;66.17;99676.72;5053415;28;19940;-79
2022/08/26 04:08:29;;;;;;;;;;;;;;;23.11;65.47;99668.63;5035710;28;19923;-78
2022/08/26 04:11:00;;;;;;;;;;;;;;;23.16;64.87;99670.88;5035968;28;19917;-78
2022/08/26 04:13:25;;;;;;;;;;;;;;;23.15;64.44;99674.97;5036302;28;19917;-78
2022/08/26 04:15:53;;;;;;;;;;;;;;;23.14;64.48;99670.53;5035720;28;20282;-79
2022/08/26 04:18:22;;;;;;;;;;;;;;;23.13;63.67;99669.75;5035700;28;19921;-78
2022/08/26 04:20:48;;;;;;;;;;;;;;;23.11;64.33;99671.47;5035885;28;19917;-77
2022/08/26 04:23:16;;;;;;;;;;;;;;;23.12;64.38;99668.19;5037132;28;19924;-78
2022/08/26 04:25:44;;;;;;;;;;;;;;;23.12;63.98;99671.00;5039815;28;19923;-79
2022/08/26 04:28:09;;;;;;;;;;;;;;;23.11;64.26;99666.56;5039510;28;19963;-79
2022/08/26 04:30:38;;;;;;;;;;;;;;;23.05;63.80;99667.63;5039699;28;19921;-79
2022/08/26 04:33:06;;;;;;;;;;;;;;;23.10;64.08;99675.56;5039904;28;20264;-78
2022/08/26 04:35:35;;;;;;;;;;;;;;;23.09;63.58;99671.13;5039965;28;19921;-78
2022/08/26 04:38:03;;;;;;;;;;;;;;;23.09;63.67;99676.81;5039390;28;19959;-78
2022/08/26 04:40:31;;;;;;;;;;;;;;;23.12;64.06;99670.22;5039365;28;19917;-78
2022/08/26 04:42:56;;;;;;;;;;;;;;;23.17;63.05;99669.59;5039272;28;20011;-78
2022/08/26 04:45:22;;;;;;;;;;;;;;;23.07;63.07;99665.13;5039669;28;19971;-78
2022/08/26 04:47:50;;;;;;;;;;;;;;;23.22;63.85;99667.00;5039178;28;19917;-79
2022/08/26 04:50:18;;;;;;;;;;;;;;;23.46;63.27;99664.47;5039192;28;19916;-79
2022/08/26 04:52:46;;;;;;;;;;;;;;;23.77;61.38;99670.19;5039455;28;20370;-78
2022/08/26 04:55:11;;;;;;;;;;;;;;;24.21;60.59;99669.25;5039250;28;20010;-79
2022/08/26 04:57:36;;;;;;;;;;;;;;;24.58;58.07;99663.69;5038949;28;20362;-78
2022/08/26 05:00:06;;;;;;;;;;;;;;;25.05;57.77;99668.94;5039148;28;19923;-80
2022/08/26 05:02:50;;;;;;;;;;;;;;;25.55;56.15;99670.31;5038943;28;19924;-79
2022/08/26 05:05:17;;;;;;;;;;;;;;;26.08;52.90;99678.38;5056466;28;20009;-78
2022/08/26 05:07:46;;;;;;;;;;;;;;;26.55;51.92;99673.25;5038825;28;20019;-78
2022/08/26 05:10:11;;;;;;;;;;;;;;;26.96;50.25;99674.41;5039065;28;19917;-78
2022/08/26 05:12:36;;;;;;;;;;;;;;;27.36;49.76;99665.31;5038744;28;19982;-79
2022/08/26 05:15:02;;;;;;;;;;;;;;;27.74;48.69;99665.75;5038757;28;19923;-79
2022/08/26 05:17:31;;;;;;;;;;;;;;;28.17;47.03;99669.81;5038412;28;19917;-78
2022/08/26 05:19:59;;;;;;;;;;;;;;;28.59;46.33;99672.28;5037439;28;19971;-78
2022/08/26 05:22:30;;;;;;;;;;;;;;;29.09;45.87;99677.91;5037839;28;19917;-79
2022/08/26 05:24:55;;;;;;;;;;;;;;;29.31;45.00;99676.56;5037228;28;19952;-79
2022/08/26 05:27:26;;;;;;;;;;;;;;;29.43;45.46;99678.25;5037263;28;19924;-77
2022/08/26 05:29:55;;;;;;;;;;;;;;;29.32;46.43;99672.41;5055540;28;19923;-77
2022/08/26 05:32:23;;;;;;;;;;;;;;;29.68;45.66;99674.63;5037181;28;19917;-78
2022/08/26 05:34:52;;;;;;;;;;;;;;;30.25;44.00;99676.63;5036917;28;20440;-79
2022/08/26 05:37:22;;;;;;;;;;;;;;;30.26;44.68;99678.22;5037348;28;20351;-78
2022/08/26 05:39:52;;;;;;;;;;;;;;;31.01;41.50;99686.75;5037033;28;19917;-78
2022/08/26 05:42:21;;;;;;;;;;;;;;;30.96;42.67;99690.38;5037050;28;20015;-79
2022/08/26 05:44:53;;;;;;;;;;;;;;;31.11;42.81;99684.41;5037535;28;19921;-78
2022/08/26 05:47:20;;;;;;;;;;;;;;;30.31;44.78;99681.63;5054669;28;19916;-78
2022/08/26 05:49:48;;;;;;;;;;;;;;;30.50;44.34;99685.66;5037040;28;19964;-78
2022/08/26 05:52:17;;;;;;;;;;;;;;;29.92;46.58;99684.97;5037452;28;19924;-79
2022/08/26 05:54:43;;;;;;;;;;;;;;;29.62;47.52;99684.47;5036962;28;19917;-78
2022/08/26 05:57:10;;;;;;;;;;;;;;;30.02;46.56;99689.22;5036851;28;19939;-78
2022/08/26 05:59:41;;;;;;;;;;;;;;;30.72;45.27;99688.69;5036989;28;20334;-78
2022/08/26 06:02:07;;;;;;;;;;;;;;;30.79;44.97;99687.44;5055229;28;19921;-80
2022/08/26 06:04:34;;;;;;;;;;;;;;;30.73;45.61;99690.25;5036801;28;20375;-79
2022/08/26 06:07:00;;;;;;;;;;;;;;;31.36;43.95;99694.16;5037131;28;19917;-78
2022/08/26 06:09:26;;;;;;;;;;;;;;;31.58;43.28;99694.22;5036712;28;20425;-79
2022/08/26 06:11:54;;;;;;;;;;;;;;;31.40;43.76;99700.47;5037220;28;19921;-79
2022/08/26 06:14:20;;;;;;;;;;;;;;;31.22;44.39;99702.47;5036686;28;20371;-79
2022/08/26 06:16:48;;;;;;;;;;;;;;;31.10;45.52;99702.94;5037297;28;19939;-78
2022/08/26 06:19:14;;;;;;;;;;;;;;;31.60;43.48;99703.13;4966507;28;2014379;-79
2022/08/26 06:21:44;;;;;;;;;;;;;;;31.62;42.81;99693.97;5037485;28;19966;-79
2022/08/26 06:26:56;;;;;;;;;;;;;;;31.91;42.19;99701.34;5055546;28;19974;-79
2022/08/26 06:29:24;;;;;;;;;;;;;;;31.93;42.54;99695.84;5037084;28;19917;-79
2022/08/26 06:31:49;;;;;;;;;;;;;;;31.93;41.32;99701.59;5037757;28;19924;-79
2022/08/26 06:34:14;;;;;;;;;;;;;;;30.95;42.75;99700.31;5037584;28;19916;-79
2022/08/26 06:36:41;;;;;;;;;;;;;;;31.86;41.90;99707.88;5037174;28;20279;-78
2022/08/26 06:39:13;;;;;;;;;;;;;;;32.59;40.61;99703.63;5055010;28;20011;-79
2022/08/26 06:41:42;;;;;;;;;;;;;;;32.56;39.98;99701.03;5054911;28;19917;-78
2022/08/26 06:44:07;;;;;;;;;;;;;;;32.83;39.20;99703.03;5037233;28;20371;-78
2022/08/26 06:46:33;;;;;;;;;;;;;;;33.60;37.39;99699.53;5036282;28;19924;-79
2022/08/26 06:48:59;;;;;;;;;;;;;;;33.65;36.97;99704.50;5037222;28;19928;-78
2022/08/26 06:51:31;;;;;;;;;;;;;;;33.40;37.93;99705.66;5036803;28;20398;-78
2022/08/26 06:54:00;;;;;;;;;;;;;;;33.65;36.58;99715.25;5037705;28;20015;-79
2022/08/26 06:56:28;;;;;;;;;;;;;;;33.86;36.24;99710.63;5037599;28;19917;-79
2022/08/26 06:58:55;;;;;;;;;;;;;;;34.63;34.26;99704.72;5036880;28;19939;-79
2022/08/26 07:01:32;;;;;;;;;;;;;;;34.93;33.68;99701.75;5036894;28;20446;-77
2022/08/26 07:04:04;;;;;;;;;;;;;;;35.50;32.23;99707.59;5055283;28;19917;-79
2022/08/26 07:06:33;;;;;;;;;;;;;;;35.60;32.75;99709.56;5054983;28;19917;-78
2022/08/26 07:09:03;;;;;;;;;;;;;;;35.86;31.07;99717.56;5054621;28;19916;-78
2022/08/26 07:11:29;;;;;;;;;;;;;;;36.27;30.62;99710.56;5036709;28;19925;-79
2022/08/26 07:13:54;;;;;;;;;;;;;;;35.93;30.45;99714.06;5037415;28;20027;-80
2022/08/26 07:16:20;;;;;;;;;;;;;;;34.25;34.20;99710.34;5036962;28;19924;-79
2022/08/26 07:18:51;;;;;;;;;;;;;;;34.33;33.47;99708.41;5036368;28;19921;-79
2022/08/26 07:21:20;;;;;;;;;;;;;;;33.18;35.64;99709.47;5054343;28;19936;-79
2022/08/26 07:23:48;;;;;;;;;;;;;;;33.20;36.29;99703.97;5036367;28;19917;-79
2022/08/26 07:26:18;;;;;;;;;;;;;;;33.46;35.88;99712.25;5036073;28;19924;-79
2022/08/26 07:28:44;;;;;;;;;;;;;;;33.80;35.43;99713.56;5036237;28;19924;-80
2022/08/26 07:31:11;;;;;;;;;;;;;;;33.61;35.81;99724.19;5036172;28;19917;-79
2022/08/26 07:33:40;;;;;;;;;;;;;;;33.45;35.85;99711.47;5036374;28;19940;-80
2022/08/26 07:36:06;;;;;;;;;;;;;;;33.28;36.61;99713.59;5036580;28;19917;-79
2022/08/26 07:38:32;;;;;;;;;;;;;;;33.33;37.51;99721.44;5035869;28;19917;-79
2022/08/26 07:41:06;;;;;;;;;;;;;;;34.35;35.74;99717.31;5036532;28;19983;-79
2022/08/26 07:43:31;;;;;;;;;;;;;;;34.49;34.12;99720.38;5054360;28;19917;-80
2022/08/26 07:45:56;;;;;;;;;;;;;;;34.68;34.07;99721.22;5036253;28;19921;-80
2022/08/26 07:48:24;;;;;;;;;;;;;;;34.62;34.50;99718.41;5036118;28;19971;-79
2022/08/26 07:50:53;;;;;;;;;;;;;;;34.44;34.21;99721.19;5036598;28;19971;-80
2022/08/26 07:53:23;;;;;;;;;;;;;;;34.44;34.72;99718.28;5053918;28;19917;-80
2022/08/26 07:55:52;;;;;;;;;;;;;;;34.24;35.09;99722.41;5030005;28;20291;-80
2022/08/26 07:58:19;;;;;;;;;;;;;;;34.52;35.22;99720.09;5035655;28;19916;-78
2022/08/26 08:00:46;;;;;;;;;;;;;;;34.65;34.18;99716.53;5036316;28;20362;-78
2022/08/26 08:03:13;;;;;;;;;;;;;;;34.84;33.49;99723.13;5036604;28;19917;-81
2022/08/26 08:05:40;;;;;;;;;;;;;;;34.23;33.95;99715.84;5036100;28;19917;-80
2022/08/26 08:08:08;;;;;;;;;;;;;;;33.88;34.44;99713.78;5036220;28;19948;-80
2022/08/26 08:10:38;;;;;;;;;;;;;;;33.60;35.82;99717.63;5036006;28;19917;-80
2022/08/26 08:13:05;;;;;;;;;;;;;;;33.79;35.75;99717.78;5035916;28;19929;-77
2022/08/26 08:15:36;;;;;;;;;;;;;;;33.52;36.13;99721.63;5054079;28;19916;-77
2022/08/26 08:18:05;;;;;;;;;;;;;;;33.42;36.28;99717.50;5053466;28;19928;-78
2022/08/26 08:20:32;;;;;;;;;;;;;;;34.36;34.07;99724.66;5036291;28;19924;-78
2022/08/26 08:23:00;;;;;;;;;;;;;;;35.32;33.22;99726.50;5036010;28;19924;-79
2022/08/26 08:25:26;;;;;;;;;;;;;;;35.87;32.07;99729.94;5035523;28;20000;-77
2022/08/26 08:27:58;;;;;;;;;;;;;;;35.37;32.37;99723.53;5035702;28;19955;-79
2022/08/26 08:30:24;;;;;;;;;;;;;;;35.61;32.26;99725.56;5035960;28;20000;-78
2022/08/26 08:32:51;;;;;;;;;;;;;;;36.21;30.92;99725.16;5036139;28;19916;-79
2022/08/26 08:35:25;;;;;;;;;;;;;;;35.88;31.13;99709.09;5035368;28;19917;-78
2022/08/26 08:37:53;;;;;;;;;;;;;;;35.84;32.19;99722.34;5019802;28;19943;-78
2022/08/26 08:40:23;;;;;;;;;;;;;;;36.18;31.65;99731.28;5035922;28;20405;-77
2022/08/26 08:43:05;;;;;;;;;;;;;;;36.33;30.30;99730.75;5032435;28;20402;-77
2022/08/26 08:45:41;;;;;;;;;;;;;;;36.59;29.84;99725.03;5035312;28;19916;-77
2022/08/26 08:48:10;;;;;;;;;;;;;;;37.03;28.40;99730.53;5037603;28;20393;-77
2022/08/26 08:50:54;;;;;;;;;;;;;;;37.09;28.81;99729.06;5036718;28;19956;-77
2022/08/26 08:53:33;;;;;;;;;;;;;;;37.11;28.37;99729.28;5035514;28;19923;-77
2022/08/26 08:56:05;;;;;;;;;;;;;;;36.92;29.44;99726.53;5035262;28;19921;-76
2022/08/26 08:58:39;;;;;;;;;;;;;;;36.38;30.22;99727.78;5035229;28;20290;-76
2022/08/26 09:01:38;;;;;;;;;;;;;;;35.39;30.77;99720.09;5052704;28;20394;-78
2022/08/26 09:04:19;;;;;;;;;;;;;;;35.46;30.54;99715.81;4990252;28;19952;-76
2022/08/26 09:06:49;;;;;;;;;;;;;;;35.61;30.81;99714.00;5035656;28;19917;-75
2022/08/26 09:09:22;;;;;;;;;;;;;;;36.41;29.82;99714.31;5035882;28;19976;-76
2022/08/26 09:11:47;;;;;;;;;;;;;;;36.03;29.97;99719.44;5038716;28;19971;-76
2022/08/26 09:14:20;;;;;;;;;;;;;;;36.64;28.74;99723.34;5056143;28;19945;-77
2022/08/26 09:16:56;;;;;;;;;;;;;;;36.57;29.74;99726.94;5038817;28;19924;-78
2022/08/26 09:19:34;;;;;;;;;;;;;;;36.67;29.08;99719.34;5038370;28;19925;-76
2022/08/26 09:22:00;;;;;;;;;;;;;;;36.54;29.38;99723.03;5038628;28;20282;-77
2022/08/26 09:24:26;;;;;;;;;;;;;;;36.38;29.89;99721.97;5038763;28;19928;-76
2022/08/26 09:26:54;;;;;;;;;;;;;;;36.15;30.20;99721.56;5038590;28;20260;-79
2022/08/26 09:29:22;;;;;;;;;;;;;;;36.05;30.50;99723.31;5038612;28;20021;-78
2022/08/26 09:31:51;;;;;;;;;;;;;;;36.11;29.89;99715.31;5038282;28;19927;-78
2022/08/26 09:34:20;;;;;;;;;;;;;;;35.87;31.29;99716.22;5038429;28;19921;-78
2022/08/26 09:36:50;;;;;;;;;;;;;;;36.46;31.14;99710.53;5038144;28;19962;-78
2022/08/26 09:39:24;;;;;;;;;;;;;;;37.41;29.55;99708.63;5037776;28;20340;-79
2022/08/26 09:42:10;;;;;;;;;;;;;;;37.94;28.60;99708.44;5037980;28;19920;-79
2022/08/26 09:44:51;;;;;;;;;;;;;;;36.82;32.31;99710.13;5038126;28;19971;-77
2022/08/26 09:47:20;;;;;;;;;;;;;;;36.94;32.25;99709.34;5037875;28;19924;-79
2022/08/26 09:49:55;;;;;;;;;;;;;;;36.52;33.19;99707.53;5037995;28;19923;-78
2022/08/26 09:52:24;;;;;;;;;;;;;;;36.71;33.13;99705.31;5037846;28;19916;-77
2022/08/26 09:54:59;;;;;;;;;;;;;;;36.98;32.57;99703.22;5038058;28;20279;-79
2022/08/26 09:57:27;;;;;;;;;;;;;;;37.28;31.54;99708.59;5038431;28;20244;-78
2022/08/26 09:59:52;;;;;;;;;;;;;;;37.07;31.90;99701.97;5038624;28;19917;-78
2022/08/26 10:02:27;;;;;;;;;;;;;;;36.67;31.86;99704.88;5037654;28;20066;-78
2022/08/26 10:04:54;;;;;;;;;;;;;;;37.32;30.85;99705.38;5037773;28;19962;-77
2022/08/26 10:07:45;;;;;;;;;;;;;;;37.02;31.27;99702.84;5037941;28;19924;-78
2022/08/26 10:10:20;;;;;;;;;;;;;;;36.49;32.90;99702.84;5032823;28;19964;-78
2022/08/26 10:13:04;;;;;;;;;;;;;;;36.15;32.76;99712.88;5037374;28;19916;-77
2022/08/26 10:15:34;;;;;;;;;;;;;;;36.34;32.21;99709.94;5037778;28;19923;-77
2022/08/26 10:18:05;;;;;;;;;;;;;;;36.39;31.88;99706.16;5037266;28;20009;-78
2022/08/26 10:20:40;;;;;;;;;;;;;;;37.11;30.72;99711.09;5036962;28;20270;-77
2022/08/26 10:23:12;;;;;;;;;;;;;;;36.80;31.40;99704.84;5037410;28;20374;-78
2022/08/26 10:25:52;;;;;;;;;;;;;;;36.41;32.21;99715.09;5037494;28;20013;-78
2022/08/26 10:28:17;;;;;;;;;;;;;;;36.05;32.70;99705.97;5037512;28;19924;-77
2022/08/26 10:30:51;;;;;;;;;;;;;;;35.32;34.21;99697.59;5038086;28;19917;-78
2022/08/26 10:33:17;;;;;;;;;;;;;;;35.92;32.62;99703.00;5037193;28;19917;-77
2022/08/26 10:35:51;;;;;;;;;;;;;;;35.33;33.90;99693.38;5037542;28;19916;-77
2022/08/26 10:38:20;;;;;;;;;;;;;;;35.78;33.11;99693.47;5037190;28;19921;-77
2022/08/26 10:40:46;;;;;;;;;;;;;;;35.29;34.44;99687.88;5037029;28;19924;-77
2022/08/26 10:43:22;;;;;;;;;;;;;;;35.41;34.06;99697.97;5037322;28;19917;-77
2022/08/26 10:45:52;;;;;;;;;;;;;;;35.91;33.01;99701.44;5037594;28;20366;-78
2022/08/26 10:48:29;;;;;;;;;;;;;;;36.37;31.89;99696.44;5036679;28;19971;-78
2022/08/26 10:50:58;;;;;;;;;;;;;;;35.54;32.69;99690.72;5036773;28;19924;-78
2022/08/26 10:53:33;;;;;;;;;;;;;;;36.09;32.45;99686.16;5036834;28;19916;-77
2022/08/26 10:56:04;;;;;;;;;;;;;;;36.10;32.70;99684.03;5036928;28;19923;-79
2022/08/26 10:58:29;;;;;;;;;;;;;;;35.45;33.81;99682.44;5037650;28;19916;-77
2022/08/26 11:03:49;;;;;;;;;;;;;;;35.30;34.08;99692.34;5054838;28;19932;-77
2022/08/26 11:06:19;;;;;;;;;;;;;;;35.28;34.63;99692.13;5036961;28;19924;-75
2022/08/26 11:08:55;;;;;;;;;;;;;;;34.78;35.92;99679.06;5036805;28;19974;-77
2022/08/26 11:11:39;;;;;;;;;;;;;;;34.74;36.47;99678.59;5036671;28;19956;-76
2022/08/26 11:14:08;;;;;;;;;;;;;;;34.90;36.82;99674.72;5036500;28;19956;-78
2022/08/26 11:16:41;;;;;;;;;;;;;;;35.35;35.17;99676.25;5036783;28;20003;-75
2022/08/26 11:19:27;;;;;;;;;;;;;;;34.91;36.54;99673.38;5036219;28;20000;-77
2022/08/26 11:22:11;;;;;;;;;;;;;;;35.31;35.61;99673.66;4986677;28;19917;-77
2022/08/26 11:24:46;;;;;;;;;;;;;;;35.34;35.92;99669.69;5036838;28;19955;-78
2022/08/26 11:27:24;;;;;;;;;;;;;;;34.57;37.47;99675.09;5036845;28;19917;-78
2022/08/26 11:29:56;;;;;;;;;;;;;;;34.18;37.56;99664.72;5036999;28;19924;-76
2022/08/26 11:32:26;;;;;;;;;;;;;;;33.72;39.13;99663.56;5036027;28;19943;-77
2022/08/26 11:35:03;;;;;;;;;;;;;;;33.94;38.83;99653.16;5035976;28;19988;-75
2022/08/26 11:37:56;;;;;;;;;;;;;;;34.07;39.20;99647.53;5036516;28;19968;-75
2022/08/26 11:40:44;;;;;;;;;;;;;;;33.54;39.89;99646.91;5031578;28;19924;-78
2022/08/26 11:43:10;;;;;;;;;;;;;;;33.99;39.71;99649.47;5036249;28;19923;-79
2022/08/26 11:45:41;;;;;;;;;;;;;;;33.34;40.21;99645.94;5035906;28;19917;-76
2022/08/26 11:48:16;;;;;;;;;;;;;;;33.82;39.56;99644.56;5037208;28;19920;-78
2022/08/26 11:50:57;;;;;;;;;;;;;;;32.98;41.20;99638.59;5028702;28;19917;-78
2022/08/26 11:53:24;;;;;;;;;;;;;;;32.93;41.84;99630.75;5036109;28;19967;-74
2022/08/26 11:55:52;;;;;;;;;;;;;;;33.76;40.51;99632.28;5036836;28;19960;-76
2022/08/26 11:58:19;;;;;;;;;;;;;;;34.23;40.03;99635.03;5030445;28;19940;-75
2022/08/26 12:00:50;;;;;;;;;;;;;;;33.64;39.57;99627.94;5035827;28;19916;-76
2022/08/26 12:03:23;;;;;;;;;;;;;;;33.66;39.79;99624.50;5036100;28;19939;-76
2022/08/26 12:05:50;;;;;;;;;;;;;;;33.32;39.84;99616.09;5035693;28;19967;-76
2022/08/26 12:08:18;;;;;;;;;;;;;;;33.23;40.12;99620.06;5036582;28;20262;-75
2022/08/26 12:10:44;;;;;;;;;;;;;;;33.57;39.25;99620.66;5035183;28;19921;-73
2022/08/26 12:13:22;;;;;;;;;;;;;;;33.48;39.78;99621.00;5035952;28;20003;-75
2022/08/26 12:15:57;;;;;;;;;;;;;;;33.59;39.93;99614.34;5035582;28;19916;-75
2022/08/26 12:18:24;;;;;;;;;;;;;;;33.35;41.46;99620.81;5035280;28;19921;-73
2022/08/26 12:20:53;;;;;;;;;;;;;;;33.35;41.49;99615.81;5036088;28;19955;-83
2022/08/26 12:23:37;;;;;;;;;;;;;;;33.34;41.86;99622.88;5035886;28;20432;-83
2022/08/26 12:26:19;;;;;;;;;;;;;;;33.07;41.80;99621.75;5054268;28;19971;-84
2022/08/26 12:28:46;;;;;;;;;;;;;;;33.28;41.44;99613.50;5055146;28;19916;-78
2022/08/26 12:31:18;;;;;;;;;;;;;;;33.52;41.05;99617.81;5053227;28;20375;-77
2022/08/26 12:33:44;;;;;;;;;;;;;;;33.45;40.19;99612.63;5035599;28;19917;-79
2022/08/26 12:36:10;;;;;;;;;;;;;;;33.25;41.22;99613.81;5035391;28;20024;-80
2022/08/26 12:38:35;;;;;;;;;;;;;;;33.10;40.80;99602.63;5035841;28;19917;-78
2022/08/26 12:41:01;;;;;;;;;;;;;;;33.01;41.06;99602.94;5035469;28;20375;-77
2022/08/26 12:43:42;;;;;;;;;;;;;;;32.91;41.48;99598.78;5035711;28;19928;-80
2022/08/26 12:46:10;;;;;;;;;;;;;;;32.49;41.90;99601.59;5057108;28;19956;-78
2022/08/26 12:48:37;;;;;;;;;;;;;;;32.08;42.89;99610.06;5039309;28;19917;-78
2022/08/26 12:51:05;;;;;;;;;;;;;;;32.14;43.21;99605.06;5039856;28;19917;-78
2022/08/26 12:53:32;;;;;;;;;;;;;;;31.58;44.20;99613.72;5038881;28;19917;-80
2022/08/26 12:55:59;;;;;;;;;;;;;;;31.29;44.74;99603.50;5040281;28;19921;-79
2022/08/26 12:58:32;;;;;;;;;;;;;;;31.28;45.55;99596.19;5039543;28;19917;-78
2022/08/26 13:01:03;;;;;;;;;;;;;;;31.00;46.83;99587.47;5056602;28;19920;-79
2022/08/26 13:03:52;;;;;;;;;;;;;;;30.91;47.07;99584.88;5057153;28;19925;-78
2022/08/26 13:06:21;;;;;;;;;;;;;;;30.80;47.75;99590.59;5038475;28;19998;-77
2022/08/26 13:08:47;;;;;;;;;;;;;;;30.70;48.08;99593.69;5056879;28;19967;-78